Time;durP1;ratioP1;P1;durP2;ratioP2;P2;SDS_P1;SDS_P2;PMS_P1;PMS_P2;Temp;Humidity;BMP_temperature;BMP_pressure;BME280_temperature;BME280_humidity;BME280_pressure;Samples;Min_cycle;Max_cycle;Signal;HPM_P1;HPM_P2
2022/04/12 00:01:42;;;;;;;9.18;5.55;;;;;;;;;;5003620;28;20498;-73
2022/04/12 00:04:08;;;;;;;11.68;5.90;;;;;;;;;;4994018;28;20507;-73
2022/04/12 00:06:36;;;;;;;12.02;7.05;;;;;;;;;;5000311;28;20100;-74
2022/04/12 00:09:03;;;;;;;11.55;6.38;;;;;;;;;;5001540;28;20025;-74
2022/04/12 00:11:29;;;;;;;13.75;6.63;;;;;;;;;;4997247;28;20026;-74
2022/04/12 00:13:57;;;;;;;10.85;5.90;;;;;;;;;;5003357;28;20033;-75
2022/04/12 00:16:23;;;;;;;8.15;5.45;;;;;;;;;;5008371;28;20494;-74
2022/04/12 00:19:04;;;;;;;7.97;4.32;;;;;;;;;;5013003;28;20026;-74
2022/04/12 00:21:34;;;;;;;12.93;4.90;;;;;;;;;;5003868;28;20480;-73
2022/04/12 00:24:04;;;;;;;7.15;4.20;;;;;;;;;;5000120;28;20030;-73
2022/04/12 00:26:33;;;;;;;5.13;3.60;;;;;;;;;;4994237;28;20034;-74
2022/04/12 00:28:59;;;;;;;7.50;3.80;;;;;;;;;;5006623;28;20053;-74
2022/04/12 00:31:25;;;;;;;8.30;4.03;;;;;;;;;;5007661;28;20076;-74
2022/04/12 00:33:51;;;;;;;6.82;4.15;;;;;;;;;;5003650;28;20464;-74
2022/04/12 00:36:17;;;;;;;10.38;4.57;;;;;;;;;;5005379;28;20030;-74
2022/04/12 00:38:43;;;;;;;7.35;4.28;;;;;;;;;;5009475;28;20030;-74
2022/04/12 00:41:11;;;;;;;7.15;4.30;;;;;;;;;;5007410;28;20106;-74
2022/04/12 00:43:38;;;;;;;7.35;4.85;;;;;;;;;;5003767;28;20542;-74
2022/04/12 00:46:04;;;;;;;7.50;4.10;;;;;;;;;;5003908;28;20088;-74
2022/04/12 00:48:31;;;;;;;6.50;4.05;;;;;;;;;;5009673;28;20025;-75
2022/04/12 00:50:57;;;;;;;6.75;3.78;;;;;;;;;;5005842;28;20026;-74
2022/04/12 00:53:24;;;;;;;7.13;3.42;;;;;;;;;;5002948;28;20057;-74
2022/04/12 00:55:51;;;;;;;10.77;3.85;;;;;;;;;;5012027;28;20031;-75
2022/04/12 00:58:17;;;;;;;5.82;3.38;;;;;;;;;;5006281;28;20030;-74
2022/04/12 01:00:44;;;;;;;4.93;2.95;;;;;;;;;;5003256;28;20061;-75
2022/04/12 01:03:10;;;;;;;4.55;2.90;;;;;;;;;;5006822;28;20042;-73
2022/04/12 01:05:37;;;;;;;5.28;3.08;;;;;;;;;;5003499;28;20034;-73
2022/04/12 01:08:03;;;;;;;5.97;3.70;;;;;;;;;;5002200;28;20031;-75
2022/04/12 01:10:32;;;;;;;5.88;3.45;;;;;;;;;;4998812;28;20031;-74
2022/04/12 01:12:58;;;;;;;5.57;3.20;;;;;;;;;;5005446;28;20026;-74
2022/04/12 01:15:24;;;;;;;5.38;3.17;;;;;;;;;;5012669;28;20068;-73
2022/04/12 01:17:51;;;;;;;4.93;3.55;;;;;;;;;;5011253;28;20382;-74
2022/04/12 01:20:19;;;;;;;4.00;2.90;;;;;;;;;;5007333;28;20029;-74
2022/04/12 01:22:45;;;;;;;4.28;2.88;;;;;;;;;;4997190;28;20041;-74
2022/04/12 01:25:11;;;;;;;5.40;3.28;;;;;;;;;;4997959;28;20077;-73
2022/04/12 01:27:37;;;;;;;3.88;2.88;;;;;;;;;;5007670;28;20098;-73
2022/04/12 01:30:03;;;;;;;5.10;2.85;;;;;;;;;;4994969;28;20037;-74
2022/04/12 01:32:29;;;;;;;5.60;3.30;;;;;;;;;;5008591;28;20121;-75
2022/04/12 01:34:55;;;;;;;5.57;2.70;;;;;;;;;;5001651;28;20086;-73
2022/04/12 01:37:21;;;;;;;3.53;2.65;;;;;;;;;;5010422;28;20058;-74
2022/04/12 01:39:47;;;;;;;5.47;2.72;;;;;;;;;;5007127;28;20037;-74
2022/04/12 01:42:13;;;;;;;4.35;2.85;;;;;;;;;;5004021;28;20025;-74
2022/04/12 01:44:39;;;;;;;4.63;2.55;;;;;;;;;;5004837;28;20089;-73
2022/04/12 01:47:08;;;;;;;4.18;2.80;;;;;;;;;;5011027;28;20026;-73
2022/04/12 01:49:34;;;;;;;4.22;2.83;;;;;;;;;;5001429;28;20154;-74
2022/04/12 01:52:03;;;;;;;4.20;2.83;;;;;;;;;;5011862;28;20507;-74
2022/04/12 01:54:29;;;;;;;4.97;2.90;;;;;;;;;;5008289;28;20475;-75
2022/04/12 01:56:56;;;;;;;4.30;2.63;;;;;;;;;;5012490;28;21558;-74
2022/04/12 01:59:22;;;;;;;3.53;2.60;;;;;;;;;;5015161;28;20049;-74
2022/04/12 02:01:49;;;;;;;5.47;2.95;;;;;;;;;;5006797;28;20058;-73
2022/04/12 02:04:15;;;;;;;6.53;3.03;;;;;;;;;;5000600;28;20042;-74
2022/04/12 02:06:41;;;;;;;4.80;2.78;;;;;;;;;;5009903;28;20031;-73
2022/04/12 02:09:07;;;;;;;4.25;2.42;;;;;;;;;;5006800;28;20026;-74
2022/04/12 02:11:33;;;;;;;5.93;2.72;;;;;;;;;;5008131;28;20057;-73
2022/04/12 02:13:59;;;;;;;5.32;2.72;;;;;;;;;;5005074;28;20033;-73
2022/04/12 02:16:25;;;;;;;3.83;2.83;;;;;;;;;;5010078;28;20033;-73
2022/04/12 02:18:51;;;;;;;4.70;3.00;;;;;;;;;;4998213;28;20033;-73
2022/04/12 02:21:17;;;;;;;4.00;2.65;;;;;;;;;;5006817;28;20028;-73
2022/04/12 02:23:45;;;;;;;5.43;2.80;;;;;;;;;;5013557;28;20172;-74
2022/04/12 02:26:12;;;;;;;3.80;2.65;;;;;;;;;;4999446;28;20019;-75
2022/04/12 02:28:38;;;;;;;6.35;2.60;;;;;;;;;;5004040;28;20022;-74
2022/04/12 02:31:04;;;;;;;4.10;2.70;;;;;;;;;;5008102;28;20030;-73
2022/04/12 02:33:30;;;;;;;4.05;2.80;;;;;;;;;;4990228;28;20037;-74
2022/04/12 02:35:58;;;;;;;4.28;2.90;;;;;;;;;;5006283;28;20026;-75
2022/04/12 02:38:24;;;;;;;5.20;2.90;;;;;;;;;;5009377;28;20031;-74
2022/04/12 02:40:50;;;;;;;3.78;2.58;;;;;;;;;;5012326;28;20502;-73
2022/04/12 02:43:16;;;;;;;5.65;2.90;;;;;;;;;;5001112;28;20030;-75
2022/04/12 02:45:42;;;;;;;5.65;2.80;;;;;;;;;;5006948;28;20034;-75
2022/04/12 02:48:10;;;;;;;6.80;3.15;;;;;;;;;;5007633;28;20032;-74
2022/04/12 02:50:36;;;;;;;5.05;2.83;;;;;;;;;;5006231;28;20045;-75
2022/04/12 02:53:05;;;;;;;5.18;2.67;;;;;;;;;;5004198;28;20549;-75
2022/04/12 02:55:31;;;;;;;4.50;2.78;;;;;;;;;;5007888;28;20022;-75
2022/04/12 02:57:57;;;;;;;6.32;2.67;;;;;;;;;;5016045;28;20026;-75
2022/04/12 03:00:23;;;;;;;6.38;3.38;;;;;;;;;;5008500;28;20430;-74
2022/04/12 03:02:49;;;;;;;4.30;2.65;;;;;;;;;;5009636;28;20030;-74
2022/04/12 03:05:15;;;;;;;4.40;2.92;;;;;;;;;;5002749;28;20042;-75
2022/04/12 03:07:41;;;;;;;4.13;2.88;;;;;;;;;;5004896;28;20052;-74
2022/04/12 03:10:08;;;;;;;4.25;2.55;;;;;;;;;;5009089;28;20056;-74
2022/04/12 03:12:34;;;;;;;5.50;2.95;;;;;;;;;;5013065;28;20030;-74
2022/04/12 03:15:02;;;;;;;5.10;2.47;;;;;;;;;;5016719;28;20022;-75
2022/04/12 03:17:28;;;;;;;4.82;2.83;;;;;;;;;;5011850;28;20475;-74
2022/04/12 03:19:54;;;;;;;4.38;2.83;;;;;;;;;;5002231;28;20026;-75
2022/04/12 03:22:20;;;;;;;10.35;3.40;;;;;;;;;;5007041;28;20403;-74
2022/04/12 03:24:46;;;;;;;6.95;3.08;;;;;;;;;;5003128;28;20476;-75
2022/04/12 03:27:12;;;;;;;5.45;2.80;;;;;;;;;;5008343;28;20438;-73
2022/04/12 03:29:38;;;;;;;4.75;2.70;;;;;;;;;;5013184;28;20030;-73
2022/04/12 03:32:04;;;;;;;5.25;2.75;;;;;;;;;;5003873;28;20087;-75
2022/04/12 03:34:31;;;;;;;5.70;2.90;;;;;;;;;;5007190;28;20112;-74
2022/04/12 03:36:58;;;;;;;5.68;2.50;;;;;;;;;;5010623;28;20037;-74
2022/04/12 03:39:25;;;;;;;4.75;2.65;;;;;;;;;;5002940;28;20027;-75
2022/04/12 03:41:52;;;;;;;6.15;3.00;;;;;;;;;;4996514;28;20037;-74
2022/04/12 03:44:18;;;;;;;4.63;2.60;;;;;;;;;;5010397;28;20471;-73
2022/04/12 03:46:44;;;;;;;4.88;2.80;;;;;;;;;;5013072;28;20101;-74
2022/04/12 03:49:10;;;;;;;5.22;2.47;;;;;;;;;;5009823;28;20037;-73
2022/04/12 03:51:37;;;;;;;6.53;3.15;;;;;;;;;;5011217;28;20445;-74
2022/04/12 03:54:03;;;;;;;5.25;2.80;;;;;;;;;;5009938;28;20480;-74
2022/04/12 03:56:30;;;;;;;5.88;3.00;;;;;;;;;;5012957;28;20018;-73
2022/04/12 03:58:58;;;;;;;8.35;3.40;;;;;;;;;;5000707;28;20022;-73
2022/04/12 04:01:25;;;;;;;4.32;2.80;;;;;;;;;;5012204;28;20371;-74
2022/04/12 04:03:51;;;;;;;5.90;2.90;;;;;;;;;;5006661;28;20164;-75
2022/04/12 04:06:17;;;;;;;5.03;2.78;;;;;;;;;;5014341;28;20052;-74
2022/04/12 04:08:43;;;;;;;9.52;3.42;;;;;;;;;;5004268;28;20034;-74
2022/04/12 04:11:09;;;;;;;7.85;3.35;;;;;;;;;;5009242;28;20352;-72
2022/04/12 04:13:36;;;;;;;4.35;2.75;;;;;;;;;;5013440;28;20372;-73
2022/04/12 04:16:05;;;;;;;6.03;2.65;;;;;;;;;;5004651;28;20022;-73
2022/04/12 04:18:31;;;;;;;4.30;2.70;;;;;;;;;;5003584;28;20022;-75
2022/04/12 04:20:58;;;;;;;5.57;2.83;;;;;;;;;;5006045;28;20034;-70
2022/04/12 04:23:24;;;;;;;10.73;3.13;;;;;;;;;;5001004;28;20029;-73
2022/04/12 04:25:50;;;;;;;10.55;3.10;;;;;;;;;;5009661;28;20045;-73
2022/04/12 04:28:21;;;;;;;6.60;3.00;;;;;;;;;;5010787;28;20034;-69
2022/04/12 04:30:49;;;;;;;11.45;3.40;;;;;;;;;;5014481;28;20087;-73
2022/04/12 04:33:17;;;;;;;7.07;3.17;;;;;;;;;;5012749;28;20040;-77
2022/04/12 04:35:43;;;;;;;5.57;2.60;;;;;;;;;;5014578;28;20022;-73
2022/04/12 04:38:10;;;;;;;5.93;3.00;;;;;;;;;;5009834;28;20487;-73
2022/04/12 04:40:36;;;;;;;7.55;3.35;;;;;;;;;;5000293;28;20172;-73
2022/04/12 04:43:02;;;;;;;8.98;3.35;;;;;;;;;;5008865;28;20419;-74
2022/04/12 04:45:29;;;;;;;8.13;2.97;;;;;;;;;;5003813;28;20496;-74
2022/04/12 04:47:56;;;;;;;8.35;3.22;;;;;;;;;;5013074;28;20116;-74
2022/04/12 04:50:23;;;;;;;5.82;3.08;;;;;;;;;;5005554;28;20398;-73
2022/04/12 04:52:50;;;;;;;8.60;3.17;;;;;;;;;;5011232;28;20138;-76
2022/04/12 04:55:16;;;;;;;8.68;3.10;;;;;;;;;;5010751;28;20026;-72
2022/04/12 04:57:43;;;;;;;10.52;3.33;;;;;;;;;;5018226;28;20045;-76
2022/04/12 05:00:15;;;;;;;9.00;2.78;;;;;;;;;;4996340;28;20534;-74
2022/04/12 05:02:44;;;;;;;8.63;2.90;;;;;;;;;;5009637;28;20387;-75
2022/04/12 05:05:11;;;;;;;3.95;2.60;;;;;;;;;;4995374;28;20438;-74
2022/04/12 05:07:40;;;;;;;6.03;2.97;;;;;;;;;;5014308;28;20496;-74
2022/04/12 05:10:07;;;;;;;5.32;2.85;;;;;;;;;;5005616;28;20058;-75
2022/04/12 05:12:33;;;;;;;7.55;3.05;;;;;;;;;;5013715;28;20065;-75
2022/04/12 05:15:02;;;;;;;10.90;4.65;;;;;;;;;;5012019;28;20040;-75
2022/04/12 05:17:28;;;;;;;8.88;3.80;;;;;;;;;;5010916;28;20065;-74
2022/04/12 05:19:56;;;;;;;6.50;3.30;;;;;;;;;;5006512;28;20574;-72
2022/04/12 05:22:23;;;;;;;14.23;4.40;;;;;;;;;;5013276;28;20105;-72
2022/04/12 05:24:49;;;;;;;7.75;4.15;;;;;;;;;;5015896;28;20029;-76
2022/04/12 05:27:16;;;;;;;15.48;4.63;;;;;;;;;;5016729;28;20372;-70
2022/04/12 05:29:42;;;;;;;9.38;5.15;;;;;;;;;;5012642;28;20422;-70
2022/04/12 05:32:13;;;;;;;49.28;30.63;;;;;;;;;;5014407;28;20029;-74
2022/04/12 05:34:42;;;;;;;68.03;43.95;;;;;;;;;;5023392;28;20038;-71
2022/04/12 05:37:09;;;;;;;37.33;24.45;;;;;;;;;;5020700;28;20021;-73
2022/04/12 05:39:35;;;;;;;20.15;10.48;;;;;;;;;;5019857;28;20065;-72
2022/04/12 05:42:01;;;;;;;13.32;7.68;;;;;;;;;;5015018;28;20475;-71
2022/04/12 05:44:28;;;;;;;7.18;3.38;;;;;;;;;;5011844;28;20072;-72
2022/04/12 05:46:54;;;;;;;8.98;5.43;;;;;;;;;;5008624;28;20029;-77
2022/04/12 05:49:20;;;;;;;6.15;2.80;;;;;;;;;;5016111;28;20041;-74
2022/04/12 05:51:55;;;;;;;15.02;5.70;;;;;;;;;;5016013;28;20026;-78
2022/04/12 05:54:21;;;;;;;18.77;5.90;;;;;;;;;;5018406;28;20021;-76
2022/04/12 05:56:47;;;;;;;13.65;6.47;;;;;;;;;;5009740;28;20022;-73
2022/04/12 05:59:13;;;;;;;15.27;5.78;;;;;;;;;;5017450;28;20033;-73
2022/04/12 06:01:39;;;;;;;21.00;6.78;;;;;;;;;;5020199;28;20553;-75
2022/04/12 06:04:06;;;;;;;20.05;7.07;;;;;;;;;;5012318;28;20038;-76
2022/04/12 06:06:33;;;;;;;14.27;6.85;;;;;;;;;;5022918;28;20032;-75
2022/04/12 06:09:03;;;;;;;14.90;7.45;;;;;;;;;;5014145;28;20609;-75
2022/04/12 06:11:30;;;;;;;16.23;6.25;;;;;;;;;;5009597;28;20022;-74
2022/04/12 06:13:58;;;;;;;26.58;12.52;;;;;;;;;;5011032;28;20030;-73
2022/04/12 06:16:24;;;;;;;13.20;7.18;;;;;;;;;;5002138;28;20105;-75
2022/04/12 06:18:50;;;;;;;9.85;5.18;;;;;;;;;;5010342;28;20026;-76
2022/04/12 06:21:16;;;;;;;7.25;4.47;;;;;;;;;;5013889;28;20030;-75
2022/04/12 06:23:44;;;;;;;8.00;4.70;;;;;;;;;;5008117;28;20375;-80
2022/04/12 06:26:10;;;;;;;10.63;5.07;;;;;;;;;;5008329;28;20026;-77
2022/04/12 06:28:36;;;;;;;12.02;4.75;;;;;;;;;;5013398;28;20555;-74
2022/04/12 06:31:02;;;;;;;8.95;4.80;;;;;;;;;;5011325;28;20422;-73
2022/04/12 06:33:28;;;;;;;9.77;4.57;;;;;;;;;;5007022;28;20026;-73
2022/04/12 06:35:57;;;;;;;10.00;5.00;;;;;;;;;;5011363;28;20384;-74
2022/04/12 06:38:23;;;;;;;9.23;4.43;;;;;;;;;;5011135;28;20144;-72
2022/04/12 06:40:49;;;;;;;10.05;4.40;;;;;;;;;;5003251;28;20026;-76
2022/04/12 06:43:15;;;;;;;9.25;5.15;;;;;;;;;;5005602;28;20045;-72
2022/04/12 06:45:41;;;;;;;9.60;4.82;;;;;;;;;;5000290;28;20049;-73
2022/04/12 06:48:08;;;;;;;7.35;3.65;;;;;;;;;;4999324;28;20492;-72
2022/04/12 06:50:34;;;;;;;15.68;5.47;;;;;;;;;;4998675;28;20035;-70
2022/04/12 06:53:03;;;;;;;14.55;5.72;;;;;;;;;;5014799;28;20046;-71
2022/04/12 06:55:29;;;;;;;11.50;5.10;;;;;;;;;;5005505;28;20076;-72
2022/04/12 06:57:55;;;;;;;4.55;2.80;;;;;;;;;;5010068;28;20026;-72
2022/04/12 07:00:25;;;;;;;3.15;2.30;;;;;;;;;;5001135;28;20029;-70
2022/04/12 07:02:51;;;;;;;4.15;2.58;;;;;;;;;;5014294;28;20029;-70
2022/04/12 07:05:17;;;;;;;9.25;3.80;;;;;;;;;;5010429;28;20392;-72
2022/04/12 07:07:44;;;;;;;6.10;2.90;;;;;;;;;;5009509;28;20112;-71
2022/04/12 07:10:11;;;;;;;3.70;2.47;;;;;;;;;;5016954;28;20029;-72
2022/04/12 07:12:38;;;;;;;6.53;2.67;;;;;;;;;;5017286;28;20025;-71
2022/04/12 07:15:05;;;;;;;4.03;2.40;;;;;;;;;;5007668;28;20460;-72
2022/04/12 07:17:33;;;;;;;3.15;2.15;;;;;;;;;;5012700;28;20036;-72
2022/04/12 07:20:00;;;;;;;4.05;2.20;;;;;;;;;;5009613;28;20057;-71
2022/04/12 07:22:26;;;;;;;4.00;2.25;;;;;;;;;;5019442;28;20072;-72
2022/04/12 07:24:52;;;;;;;3.78;2.38;;;;;;;;;;5012450;28;20035;-72
2022/04/12 07:27:18;;;;;;;7.13;3.08;;;;;;;;;;5012762;28;20418;-72
2022/04/12 07:29:44;;;;;;;5.55;2.60;;;;;;;;;;5017512;28;20100;-72
2022/04/12 07:32:10;;;;;;;4.43;2.40;;;;;;;;;;5014998;28;20037;-73
2022/04/12 07:34:36;;;;;;;4.13;2.35;;;;;;;;;;5011146;28;20057;-70
2022/04/12 07:37:02;;;;;;;7.18;2.50;;;;;;;;;;5014273;28;20073;-71
2022/04/12 07:39:28;;;;;;;3.92;2.55;;;;;;;;;;5009048;28;20484;-74
2022/04/12 07:41:54;;;;;;;3.40;2.53;;;;;;;;;;5013264;28;20073;-72
2022/04/12 07:44:21;;;;;;;7.65;2.60;;;;;;;;;;5020193;28;20105;-70
2022/04/12 07:46:47;;;;;;;3.78;2.40;;;;;;;;;;5013316;28;20057;-72
2022/04/12 07:49:13;;;;;;;2.63;2.17;;;;;;;;;;5010622;28;20022;-73
2022/04/12 07:51:41;;;;;;;4.88;2.47;;;;;;;;;;5009550;28;20085;-73
2022/04/12 07:54:07;;;;;;;5.22;2.40;;;;;;;;;;5013719;28;20372;-73
2022/04/12 07:56:34;;;;;;;5.55;2.55;;;;;;;;;;5001205;28;20100;-73
2022/04/12 07:59:00;;;;;;;6.70;2.65;;;;;;;;;;5013735;28;20021;-73
2022/04/12 08:01:26;;;;;;;4.05;2.60;;;;;;;;;;5015894;28;20025;-72
2022/04/12 08:03:52;;;;;;;4.68;2.30;;;;;;;;;;5005878;28;20025;-74
2022/04/12 08:06:18;;;;;;;5.85;2.50;;;;;;;;;;5000926;28;20029;-74
2022/04/12 08:08:44;;;;;;;5.25;2.92;;;;;;;;;;5003156;28;20034;-72
2022/04/12 08:11:11;;;;;;;5.88;2.40;;;;;;;;;;5014108;28;20022;-72
2022/04/12 08:13:37;;;;;;;4.32;2.63;;;;;;;;;;4998881;28;20033;-73
2022/04/12 08:16:03;;;;;;;4.53;2.47;;;;;;;;;;5016289;28;20029;-73
2022/04/12 08:18:29;;;;;;;3.08;2.22;;;;;;;;;;5001640;28;20041;-74
2022/04/12 08:20:55;;;;;;;5.82;2.47;;;;;;;;;;5018905;28;20075;-73
2022/04/12 08:23:24;;;;;;;5.70;2.50;;;;;;;;;;5015339;28;20038;-72
2022/04/12 08:25:51;;;;;;;5.35;2.50;;;;;;;;;;5015480;28;20052;-72
2022/04/12 08:28:17;;;;;;;3.88;2.30;;;;;;;;;;5020539;28;20030;-73
2022/04/12 08:30:43;;;;;;;5.38;2.50;;;;;;;;;;5024550;28;20033;-72
2022/04/12 08:33:09;;;;;;;4.03;2.60;;;;;;;;;;5012536;28;20021;-73
2022/04/12 08:35:35;;;;;;;4.93;2.75;;;;;;;;;;5010430;28;20022;-72
2022/04/12 08:38:02;;;;;;;4.60;2.88;;;;;;;;;;5023182;28;20036;-74
2022/04/12 08:40:28;;;;;;;4.47;2.58;;;;;;;;;;5029057;28;20383;-74
2022/04/12 08:42:54;;;;;;;4.13;2.78;;;;;;;;;;5032053;28;20022;-72
2022/04/12 08:45:21;;;;;;;5.45;2.78;;;;;;;;;;5016064;28;20547;-72
2022/04/12 08:47:47;;;;;;;5.05;2.70;;;;;;;;;;5021765;28;20064;-71
2022/04/12 08:50:13;;;;;;;5.68;2.80;;;;;;;;;;5021755;28;20040;-74
2022/04/12 08:52:39;;;;;;;5.65;3.22;;;;;;;;;;5030548;28;20104;-72
2022/04/12 08:55:11;;;;;;;7.38;2.80;;;;;;;;;;5020235;28;20503;-72
2022/04/12 08:57:39;;;;;;;5.05;2.50;;;;;;;;;;5021604;28;20075;-73
2022/04/12 09:00:07;;;;;;;3.80;2.60;;;;;;;;;;5026898;28;20048;-73
2022/04/12 09:02:33;;;;;;;4.70;2.65;;;;;;;;;;5032878;28;20017;-71
2022/04/12 09:04:59;;;;;;;3.83;2.50;;;;;;;;;;5026339;28;20136;-73
2022/04/12 09:07:26;;;;;;;5.22;3.03;;;;;;;;;;5017594;28;20391;-72
2022/04/12 09:09:53;;;;;;;6.07;3.65;;;;;;;;;;5029665;28;20029;-72
2022/04/12 09:12:19;;;;;;;6.53;3.13;;;;;;;;;;5031571;28;20037;-73
2022/04/12 09:14:48;;;;;;;5.85;2.90;;;;;;;;;;5030197;28;20022;-72
2022/04/12 09:17:35;;;;;;;5.60;2.90;;;;;;;;;;5016936;28;20109;-75
2022/04/12 09:20:03;;;;;;;6.82;3.25;;;;;;;;;;5025103;28;20021;-72
2022/04/12 09:22:31;;;;;;;9.68;6.15;;;;;;;;;;5019565;28;20026;-74
2022/04/12 09:24:58;;;;;;;4.70;2.85;;;;;;;;;;5013030;28;20073;-73
2022/04/12 09:27:26;;;;;;;7.72;3.25;;;;;;;;;;5019973;28;20040;-72
2022/04/12 09:29:53;;;;;;;7.82;4.20;;;;;;;;;;5008936;28;20027;-72
2022/04/12 09:32:21;;;;;;;4.80;3.20;;;;;;;;;;5010489;28;20034;-73
2022/04/12 09:34:47;;;;;;;11.90;3.25;;;;;;;;;;5022617;28;20056;-75
2022/04/12 09:37:42;;;;;;;6.18;3.85;;;;;;;;;;5022414;28;20030;-72
2022/04/12 09:40:11;;;;;;;6.38;3.92;;;;;;;;;;4931993;29;20040;-75
2022/04/12 09:45:47;;;;;;;7.82;4.03;;;;;;;;;;5598110;23;20100;-79
2022/04/12 09:48:15;;;;;;;9.35;4.05;;;;;;;;;;5012461;28;20105;-76
2022/04/12 09:50:41;;;;;;;8.18;4.20;;;;;;;;;;5016621;28;20026;-76
2022/04/12 09:53:07;;;;;;;7.18;4.00;;;;;;;;;;5015866;28;20057;-75
2022/04/12 09:55:36;;;;;;;6.88;3.80;;;;;;;;;;5017995;28;20060;-76
2022/04/12 09:58:03;;;;;;;7.35;4.05;;;;;;;;;;5025015;28;20056;-75
2022/04/12 10:00:34;;;;;;;17.70;9.02;;;;;;;;;;5006995;28;20433;-78
2022/04/12 10:03:01;;;;;;;21.05;13.32;;;;;;;;;;5018144;28;20032;-77
2022/04/12 10:05:28;;;;;;;10.05;4.15;;;;;;;;;;5024540;28;20033;-78
2022/04/12 10:07:57;;;;;;;8.05;4.30;;;;;;;;;;5037332;23;20030;-77
2022/04/12 10:10:43;;;;;;;7.05;4.28;;;;;;;;;;5032787;28;20029;-78
2022/04/12 10:13:12;;;;;;;6.03;3.70;;;;;;;;;;5033404;28;20016;-78
2022/04/12 10:15:39;;;;;;;6.47;3.67;;;;;;;;;;5031942;28;20030;-79
2022/04/12 10:18:05;;;;;;;5.15;3.22;;;;;;;;;;5029231;28;20085;-77
2022/04/12 10:20:33;;;;;;;8.43;3.25;;;;;;;;;;5017788;28;20545;-74
2022/04/12 10:23:00;;;;;;;7.10;3.80;;;;;;;;;;5014821;28;20045;-74
2022/04/12 10:25:26;;;;;;;6.40;3.10;;;;;;;;;;5017700;28;20038;-76
2022/04/12 10:28:00;;;;;;;6.18;3.40;;;;;;;;;;5022023;28;20025;-77
2022/04/12 10:30:28;;;;;;;;;;;;;;;;;;5025523;28;20033;-76
2022/04/12 10:33:00;;;;;;;6.07;3.45;;;;;;;;;;5021087;28;19940;-75
2022/04/12 10:35:58;;;;;;;4.50;3.20;;;;;;;;;;5015398;28;20418;-77
2022/04/12 10:38:26;;;;;;;7.00;3.55;;;;;;;;;;4999501;28;20182;-72
2022/04/12 10:40:56;;;;;;;5.72;3.50;;;;;;;;;;5045938;28;20022;-74
2022/04/12 10:43:24;;;;;;;7.55;3.88;;;;;;;;;;5033959;28;20026;-78
2022/04/12 10:45:50;;;;;;;5.47;3.40;;;;;;;;;;5021461;28;20044;-77
2022/04/12 10:48:21;;;;;;;9.38;3.95;;;;;;;;;;5024035;28;20108;-77
2022/04/12 10:50:48;;;;;;;7.63;3.60;;;;;;;;;;5022007;28;20571;-79
2022/04/12 10:53:19;;;;;;;8.98;3.88;;;;;;;;;;5011389;28;20044;-78
2022/04/12 10:55:45;;;;;;;10.48;3.72;;;;;;;;;;5017698;28;20071;-77
2022/04/12 10:58:14;;;;;;;5.78;3.38;;;;;;;;;;5021051;28;20507;-76
2022/04/12 11:00:42;;;;;;;11.80;3.85;;;;;;;;;;5024236;28;20042;-76
2022/04/12 11:03:12;;;;;;;5.88;3.83;;;;;;;;;;5028077;28;20018;-77
2022/04/12 11:06:00;;;;;;;6.78;4.20;;;;;;;;;;5021005;28;20038;-77
2022/04/12 11:08:35;;;;;;;7.28;4.10;;;;;;;;;;4955090;29;20139;-75
2022/04/12 11:11:03;;;;;;;6.63;4.00;;;;;;;;;;4952708;29;20046;-75
2022/04/12 11:13:30;;;;;;;6.10;3.80;;;;;;;;;;4959896;29;20061;-78
2022/04/12 11:15:57;;;;;;;8.15;4.20;;;;;;;;;;4959455;29;20082;-76
2022/04/12 11:18:23;;;;;;;9.85;4.10;;;;;;;;;;4956144;29;20090;-76
2022/04/12 11:21:02;;;;;;;9.35;4.18;;;;;;;;;;4956541;28;20058;-76
2022/04/12 11:23:47;;;;;;;8.05;3.92;;;;;;;;;;4951630;28;20039;-76
2022/04/12 11:26:27;;;;;;;8.63;4.25;;;;;;;;;;4957275;29;20059;-76
2022/04/12 11:28:56;;;;;;;5.28;3.90;;;;;;;;;;4962499;28;20042;-76
2022/04/12 11:31:22;;;;;;;5.75;3.85;;;;;;;;;;4957510;29;20101;-77
2022/04/12 11:33:48;;;;;;;6.10;3.50;;;;;;;;;;4959816;29;20489;-76
2022/04/12 11:36:19;;;;;;;7.72;3.72;;;;;;;;;;4961551;29;20510;-78
2022/04/12 11:38:46;;;;;;;6.55;3.70;;;;;;;;;;4962329;29;20048;-76
2022/04/12 11:41:13;;;;;;;4.55;3.50;;;;;;;;;;4965272;29;20039;-73
2022/04/12 11:43:39;;;;;;;8.60;3.63;;;;;;;;;;4957517;29;20043;-76
2022/04/12 11:46:05;;;;;;;5.97;3.45;;;;;;;;;;5004901;28;20181;-76
2022/04/12 11:48:32;;;;;;;10.57;3.30;;;;;;;;;;5025860;28;20037;-75
2022/04/12 11:51:22;;;;;;;7.47;4.15;;;;;;;;;;5027382;28;20022;-77
2022/04/12 11:53:51;;;;;;;5.70;3.40;;;;;;;;;;5019291;28;20038;-75
2022/04/12 11:56:17;;;;;;;6.82;3.85;;;;;;;;;;5023383;28;20141;-78
2022/04/12 11:58:45;;;;;;;9.85;3.90;;;;;;;;;;5015302;28;20496;-74
2022/04/12 12:01:13;;;;;;;7.97;3.70;;;;;;;;;;5013595;28;20030;-74
2022/04/12 12:03:42;;;;;;;9.23;4.32;;;;;;;;;;5016384;28;20049;-74
2022/04/12 12:06:11;;;;;;;8.43;3.85;;;;;;;;;;5011410;28;20087;-73
2022/04/12 12:08:37;;;;;;;6.50;4.10;;;;;;;;;;4992972;28;20507;-74
2022/04/12 12:11:10;;;;;;;5.22;3.72;;;;;;;;;;4992955;28;20487;-73
2022/04/12 12:13:36;;;;;;;6.35;3.67;;;;;;;;;;4992946;28;20035;-75
2022/04/12 12:16:02;;;;;;;8.75;4.00;;;;;;;;;;4993446;28;20037;-74
2022/04/12 12:18:28;;;;;;;12.63;4.47;;;;;;;;;;5002403;28;20037;-73
2022/04/12 12:20:55;;;;;;;7.90;4.25;;;;;;;;;;4995327;28;20030;-74
2022/04/12 12:23:21;;;;;;;6.32;3.65;;;;;;;;;;4993443;28;20041;-74
2022/04/12 12:25:50;;;;;;;7.78;4.70;;;;;;;;;;4992426;28;20061;-74
2022/04/12 12:28:23;;;;;;;9.38;5.25;;;;;;;;;;5000500;28;20033;-74
2022/04/12 12:30:59;;;;;;;6.95;4.40;;;;;;;;;;4992443;28;20058;-74
2022/04/12 12:33:25;;;;;;;6.97;4.55;;;;;;;;;;4993710;28;20030;-74
2022/04/12 12:35:51;;;;;;;8.57;4.20;;;;;;;;;;4992041;28;20038;-73
2022/04/12 12:38:21;;;;;;;6.40;3.88;;;;;;;;;;4975049;28;20058;-74
2022/04/12 12:40:47;;;;;;;5.75;3.92;;;;;;;;;;4994064;28;20133;-72
2022/04/12 12:43:14;;;;;;;7.38;4.50;;;;;;;;;;4996876;28;20030;-75
2022/04/12 12:45:45;;;;;;;7.80;4.70;;;;;;;;;;4993471;28;20137;-75
2022/04/12 12:48:15;;;;;;;8.45;4.60;;;;;;;;;;4994617;28;20081;-75
2022/04/12 12:50:42;;;;;;;6.68;4.00;;;;;;;;;;4994431;28;20045;-71
2022/04/12 12:53:09;;;;;;;6.82;4.60;;;;;;;;;;4992765;28;20018;-72
2022/04/12 12:55:36;;;;;;;9.52;4.75;;;;;;;;;;4995952;28;20038;-69
2022/04/12 12:58:12;;;;;;;5.72;4.53;;;;;;;;;;4994243;28;20024;-72
2022/04/12 13:00:38;;;;;;;7.15;4.50;;;;;;;;;;4992096;28;20118;-73
2022/04/12 13:03:08;;;;;;;13.93;4.95;;;;;;;;;;4995990;28;20070;-76
2022/04/12 13:05:35;;;;;;;8.48;4.63;;;;;;;;;;5002032;28;20069;-73
2022/04/12 13:08:03;;;;;;;7.00;4.60;;;;;;;;;;5010854;28;20048;-73
2022/04/12 13:10:32;;;;;;;11.02;4.90;;;;;;;;;;5012288;28;20030;-74
2022/04/12 13:12:58;;;;;;;6.20;4.82;;;;;;;;;;5013610;28;20712;-74
2022/04/12 13:15:25;;;;;;;8.15;4.63;;;;;;;;;;5012836;28;20026;-72
2022/04/12 13:17:53;;;;;;;16.48;5.22;;;;;;;;;;5012046;28;20112;-72
2022/04/12 13:20:19;;;;;;;8.65;5.13;;;;;;;;;;5011708;28;20535;-75
2022/04/12 13:22:46;;;;;;;7.68;4.70;;;;;;;;;;5013691;28;20049;-74
2022/04/12 13:25:19;;;;;;;9.52;4.78;;;;;;;;;;5012007;28;20045;-73
2022/04/12 13:27:49;;;;;;;9.67;4.23;;;;;;;;;;5027879;28;20029;-75
2022/04/12 13:30:15;;;;;;;8.45;4.75;;;;;;;;;;5012224;28;20614;-72
2022/04/12 13:32:43;;;;;;;7.25;4.60;;;;;;;;;;5012731;28;20030;-72
2022/04/12 13:35:10;;;;;;;10.25;5.55;;;;;;;;;;5013045;28;20018;-74
2022/04/12 13:37:36;;;;;;;8.43;5.10;;;;;;;;;;5017986;28;20022;-75
2022/04/12 13:40:05;;;;;;;10.95;5.07;;;;;;;;;;5013656;28;20518;-75
2022/04/12 13:42:31;;;;;;;8.02;5.20;;;;;;;;;;5012191;28;20045;-73
2022/04/12 13:44:57;;;;;;;25.63;8.60;;;;;;;;;;5012593;28;20022;-73
2022/04/12 13:47:23;;;;;;;17.40;7.57;;;;;;;;;;5016491;28;20026;-73
2022/04/12 13:49:49;;;;;;;7.43;5.03;;;;;;;;;;5016456;28;20072;-75
2022/04/12 13:52:16;;;;;;;15.30;6.85;;;;;;;;;;5017761;28;20034;-74
2022/04/12 13:54:42;;;;;;;9.35;5.18;;;;;;;;;;5018988;28;20353;-72
2022/04/12 13:57:08;;;;;;;10.65;5.38;;;;;;;;;;5023715;28;20028;-76
2022/04/12 13:59:36;;;;;;;11.13;5.20;;;;;;;;;;5016445;28;20026;-71
2022/04/12 14:02:03;;;;;;;7.70;4.80;;;;;;;;;;5016754;28;20494;-77
2022/04/12 14:04:29;;;;;;;7.60;4.88;;;;;;;;;;5018746;28;20030;-75
2022/04/12 14:06:55;;;;;;;8.18;4.78;;;;;;;;;;5018886;28;20049;-75
2022/04/12 14:09:21;;;;;;;13.35;5.40;;;;;;;;;;5018771;28;20037;-73
2022/04/12 14:11:47;;;;;;;8.85;4.60;;;;;;;;;;5017001;28;20026;-76
2022/04/12 14:14:14;;;;;;;6.70;4.28;;;;;;;;;;5016636;28;20030;-72
2022/04/12 14:16:43;;;;;;;9.98;5.22;;;;;;;;;;5017855;28;20080;-71
2022/04/12 14:19:10;;;;;;;7.25;4.60;;;;;;;;;;5015941;28;20065;-70
2022/04/12 14:21:36;;;;;;;6.50;4.45;;;;;;;;;;5014652;28;20453;-72
2022/04/12 14:24:02;;;;;;;7.78;4.55;;;;;;;;;;5015799;28;20018;-74
2022/04/12 14:26:28;;;;;;;6.15;4.55;;;;;;;;;;5020307;28;20048;-74
2022/04/12 14:28:54;;;;;;;11.32;7.32;;;;;;;;;;5026607;28;20395;-71
2022/04/12 14:31:20;;;;;;;11.27;5.75;;;;;;;;;;5016534;28;20034;-73
2022/04/12 14:33:46;;;;;;;18.20;5.18;;;;;;;;;;5014760;28;20037;-74
2022/04/12 14:36:13;;;;;;;9.10;4.93;;;;;;;;;;5014581;28;20054;-72
2022/04/12 14:38:39;;;;;;;9.38;5.07;;;;;;;;;;5016002;28;20022;-74
2022/04/12 14:41:05;;;;;;;11.38;5.15;;;;;;;;;;5016475;28;20030;-77
2022/04/12 14:43:33;;;;;;;8.32;4.93;;;;;;;;;;5031649;28;20117;-76
2022/04/12 14:46:00;;;;;;;19.88;5.60;;;;;;;;;;4997905;28;20084;-73